createdAt,value
2018-05-15T00:00:53.043Z,99.99
2018-05-15T00:02:01.103Z,99.99
2018-05-15T00:03:09.173Z,99.99
2018-05-15T00:04:17.240Z,99.99
2018-05-15T00:05:25.290Z,99.99
2018-05-15T00:06:33.376Z,99.99
2018-05-15T00:07:41.430Z,99.99
2018-05-15T00:08:49.507Z,99.99
2018-05-15T00:09:57.564Z,99.99
2018-05-15T00:11:05.617Z,99.99
2018-05-15T00:12:13.693Z,99.99
2018-05-15T00:13:21.738Z,99.99
2018-05-15T00:14:29.817Z,99.99
2018-05-15T00:15:37.889Z,99.99
2018-05-15T00:16:45.952Z,99.99
2018-05-15T00:17:54.018Z,99.99
2018-05-15T00:19:02.067Z,99.99
2018-05-15T00:20:10.153Z,99.99
2018-05-15T00:21:18.214Z,99.99
2018-05-15T00:22:26.284Z,99.99
2018-05-15T00:23:34.357Z,99.99
2018-05-15T00:24:42.402Z,99.99
2018-05-15T00:25:50.459Z,99.99
2018-05-15T00:26:58.534Z,99.99
2018-05-15T00:28:06.608Z,99.99
2018-05-15T00:29:14.690Z,99.99
2018-05-15T00:30:22.736Z,99.99
2018-05-15T00:31:30.797Z,99.99
2018-05-15T00:32:38.859Z,99.99
2018-05-15T00:33:46.934Z,99.99
2018-05-15T00:34:54.996Z,99.99
2018-05-15T00:36:03.057Z,99.99
2018-05-15T00:37:11.125Z,99.99
2018-05-15T00:38:19.173Z,99.99
2018-05-15T00:39:27.241Z,99.99
2018-05-15T00:40:35.311Z,99.99
2018-05-15T00:41:43.379Z,99.99
2018-05-15T00:42:51.439Z,99.99
2018-05-15T00:43:59.507Z,99.99
2018-05-15T00:45:07.582Z,99.99
2018-05-15T00:46:15.640Z,99.99
2018-05-15T00:47:23.712Z,99.99
2018-05-15T00:48:31.755Z,99.99
2018-05-15T00:49:39.840Z,99.99
2018-05-15T00:50:47.903Z,99.99
2018-05-15T00:51:55.964Z,99.99
2018-05-15T00:53:04.027Z,99.99
2018-05-15T00:54:12.068Z,99.99
2018-05-15T00:55:20.146Z,99.99
2018-05-15T00:56:28.781Z,99.99
2018-05-15T00:57:36.549Z,99.99
2018-05-15T00:58:44.593Z,99.99
2018-05-15T00:59:52.701Z,99.99
2018-05-15T01:01:01.064Z,99.99
2018-05-15T01:02:08.810Z,99.99
2018-05-15T01:03:17.022Z,99.99
2018-05-15T01:04:25.156Z,99.99
2018-05-15T01:05:33.158Z,99.99
2018-05-15T01:06:41.300Z,99.99
2018-05-15T01:07:50.403Z,99.99
2018-05-15T01:08:57.870Z,99.99
2018-05-15T01:10:05.364Z,99.99
2018-05-15T01:11:13.618Z,99.99
2018-05-15T01:12:21.660Z,99.99
2018-05-15T01:13:29.665Z,99.99
2018-05-15T01:14:37.220Z,99.99
2018-05-15T01:15:45.291Z,99.99
2018-05-15T01:16:53.356Z,99.99
2018-05-15T01:18:01.410Z,99.99
2018-05-15T01:19:09.480Z,99.99
2018-05-15T01:20:17.558Z,99.99
2018-05-15T01:21:25.616Z,99.99
2018-05-15T01:22:33.676Z,99.99
2018-05-15T01:23:41.717Z,99.99
2018-05-15T01:24:49.804Z,99.99
2018-05-15T01:25:57.875Z,99.99
2018-05-15T01:27:05.955Z,99.99
2018-05-15T01:28:13.997Z,99.99
2018-05-15T01:29:22.048Z,99.99
2018-05-15T01:30:30.130Z,99.99
2018-05-15T01:31:38.202Z,99.99
2018-05-15T01:32:46.257Z,99.99
2018-05-15T01:33:54.321Z,99.99
2018-05-15T01:35:02.372Z,99.99
2018-05-15T01:36:10.439Z,99.99
2018-05-15T01:37:18.516Z,99.99
2018-05-15T01:38:26.571Z,99.99
2018-05-15T01:39:34.622Z,99.99
2018-05-15T01:40:42.704Z,99.99
2018-05-15T01:41:50.759Z,99.99
2018-05-15T01:42:58.836Z,99.99
2018-05-15T01:44:06.896Z,99.99
2018-05-15T01:45:14.955Z,99.99
2018-05-15T01:46:23.015Z,99.99
2018-05-15T01:47:31.076Z,99.99
2018-05-15T01:48:39.143Z,99.99
2018-05-15T01:49:47.200Z,99.99
2018-05-15T01:50:55.282Z,99.99
2018-05-15T01:52:03.351Z,99.99
2018-05-15T01:53:11.418Z,99.99
2018-05-15T01:54:19.473Z,99.99
2018-05-15T01:55:27.529Z,99.99
2018-05-15T01:56:35.603Z,99.99
2018-05-15T01:57:43.675Z,99.99
2018-05-15T01:58:51.707Z,99.99
2018-05-15T01:59:59.840Z,99.99
2018-05-15T02:01:07.862Z,99.99
2018-05-15T02:02:15.926Z,99.99
2018-05-15T02:03:23.978Z,99.99
2018-05-15T02:04:32.044Z,99.99
2018-05-15T02:05:40.124Z,99.99
2018-05-15T02:06:48.189Z,99.99
2018-05-15T02:07:56.260Z,99.99
2018-05-15T02:09:04.319Z,99.99
2018-05-15T02:10:12.383Z,99.99
2018-05-15T02:11:20.441Z,99.99
2018-05-15T02:12:28.506Z,99.99
2018-05-15T02:13:36.578Z,99.99
2018-05-15T02:14:44.676Z,99.99
2018-05-15T02:15:52.706Z,99.99
2018-05-15T02:17:00.766Z,99.99
2018-05-15T02:18:08.865Z,99.99
2018-05-15T02:19:16.895Z,99.99
2018-05-15T02:20:24.953Z,99.99
2018-05-15T02:21:33.033Z,99.99
2018-05-15T02:22:41.079Z,99.99
2018-05-15T02:23:49.167Z,99.99
2018-05-15T02:24:57.215Z,99.99
2018-05-15T02:26:05.290Z,99.99
2018-05-15T02:27:14.192Z,99.99
2018-05-15T02:28:21.401Z,99.99
2018-05-15T02:29:29.488Z,99.99
2018-05-15T02:30:37.637Z,99.99
2018-05-15T02:31:45.615Z,99.99
2018-05-15T02:32:53.680Z,99.99
2018-05-15T02:34:01.726Z,99.99
2018-05-15T02:35:09.816Z,99.99
2018-05-15T02:36:17.875Z,99.99
2018-05-15T02:37:25.944Z,99.99
2018-05-15T02:38:33.994Z,99.99
2018-05-15T02:39:42.061Z,99.99
2018-05-15T02:40:50.131Z,99.99
2018-05-15T02:41:58.203Z,99.99
2018-05-15T02:43:06.282Z,99.99
2018-05-15T02:44:14.334Z,99.99
2018-05-15T02:45:22.392Z,99.99
2018-05-15T02:46:30.458Z,99.99
2018-05-15T02:47:38.507Z,99.99
2018-05-15T02:48:46.587Z,99.99
2018-05-15T02:49:54.656Z,99.99
2018-05-15T02:51:02.719Z,99.99
2018-05-15T02:52:10.787Z,99.99
2018-05-15T02:53:18.859Z,99.99
2018-05-15T02:54:26.930Z,99.99
2018-05-15T02:55:34.980Z,99.99
2018-05-15T02:56:43.054Z,99.99
2018-05-15T02:57:51.110Z,99.99
2018-05-15T02:58:59.182Z,99.99
2018-05-15T03:00:07.244Z,99.99
2018-05-15T03:01:15.321Z,99.99
2018-05-15T03:02:23.372Z,99.99
2018-05-15T03:03:31.433Z,99.99
2018-05-15T03:04:39.509Z,99.99
2018-05-15T03:05:47.578Z,99.99
2018-05-15T03:06:55.636Z,99.99
2018-05-15T03:08:03.705Z,99.99
2018-05-15T03:09:11.737Z,99.99
2018-05-15T03:10:19.823Z,99.99
2018-05-15T03:11:27.901Z,99.99
2018-05-15T03:12:35.967Z,99.99
2018-05-15T03:13:44.030Z,99.99
2018-05-15T03:14:52.078Z,99.99
2018-05-15T03:16:00.152Z,99.99
2018-05-15T03:17:08.213Z,99.99
2018-05-15T03:18:16.297Z,99.99
2018-05-15T03:19:24.428Z,99.99
2018-05-15T03:20:32.405Z,99.99
2018-05-15T03:21:40.487Z,99.99
2018-05-15T03:22:48.542Z,99.99
2018-05-15T03:23:56.604Z,99.99
2018-05-15T03:25:04.681Z,99.99
2018-05-15T03:26:12.744Z,99.99
2018-05-15T03:27:20.812Z,99.99
2018-05-15T03:28:28.872Z,99.99
2018-05-15T03:29:36.937Z,99.99
2018-05-15T03:30:45.009Z,99.99
2018-05-15T03:31:53.073Z,99.99
2018-05-15T03:33:01.130Z,99.99
2018-05-15T03:34:09.209Z,99.99
2018-05-15T03:35:17.272Z,99.99
2018-05-15T03:36:25.333Z,99.99
2018-05-15T03:37:33.403Z,99.99
2018-05-15T03:38:41.437Z,99.99
2018-05-15T03:39:49.527Z,99.99
2018-05-15T03:40:57.582Z,99.99
2018-05-15T03:42:05.664Z,99.99
2018-05-15T03:43:13.722Z,99.99
2018-05-15T03:44:21.748Z,99.99
2018-05-15T03:45:29.840Z,99.99
2018-05-15T03:46:37.911Z,99.99
2018-05-15T03:47:45.983Z,99.99
2018-05-15T03:48:54.041Z,99.99
2018-05-15T03:50:02.095Z,99.99
2018-05-15T03:51:10.163Z,99.99
2018-05-15T03:52:18.244Z,99.99
2018-05-15T03:53:26.318Z,99.99
2018-05-15T03:54:34.374Z,99.99
2018-05-15T03:55:42.421Z,99.99
2018-05-15T03:56:50.509Z,99.99
2018-05-15T03:57:58.569Z,99.99
2018-05-15T03:59:06.621Z,99.99
2018-05-15T04:00:14.710Z,99.99
2018-05-15T04:01:22.772Z,99.99
2018-05-15T04:02:30.826Z,99.99
2018-05-15T04:03:38.906Z,99.99
2018-05-15T04:04:46.965Z,99.99
2018-05-15T04:05:55.031Z,99.99
2018-05-15T04:07:03.132Z,99.99
2018-05-15T04:08:11.139Z,99.99
2018-05-15T04:09:19.209Z,99.99
2018-05-15T04:10:27.284Z,99.99
2018-05-15T04:11:35.348Z,99.99
2018-05-15T04:12:43.412Z,99.99
2018-05-15T04:13:51.451Z,99.99
2018-05-15T04:14:59.528Z,99.99
2018-05-15T04:16:07.734Z,99.99
2018-05-15T04:17:15.677Z,99.99
2018-05-15T04:18:23.724Z,99.99
2018-05-15T04:19:31.772Z,99.99
2018-05-15T04:20:39.866Z,99.99
2018-05-15T04:21:47.928Z,99.99
2018-05-15T04:22:55.987Z,99.99
2018-05-15T04:24:04.056Z,99.99
2018-05-15T04:25:12.088Z,99.99
2018-05-15T04:26:20.178Z,99.99
2018-05-15T04:27:28.241Z,99.99
2018-05-15T04:28:36.313Z,99.99
2018-05-15T04:29:44.378Z,99.99
2018-05-15T04:30:52.444Z,99.99
2018-05-15T04:32:00.503Z,99.99
2018-05-15T04:33:08.677Z,99.99
2018-05-15T04:34:17.186Z,99.99
2018-05-15T04:35:24.806Z,99.99
2018-05-15T04:36:32.751Z,99.99
2018-05-15T04:37:40.825Z,99.99
2018-05-15T04:38:49.013Z,99.99
2018-05-15T04:39:56.978Z,99.99
2018-05-15T04:41:05.013Z,99.99
2018-05-15T04:42:13.088Z,99.99
2018-05-15T04:43:21.165Z,99.99
2018-05-15T04:44:29.199Z,99.99
2018-05-15T04:45:37.262Z,99.99
2018-05-15T04:46:45.332Z,99.99
2018-05-15T04:47:53.391Z,99.99
2018-05-15T04:49:01.460Z,99.99
2018-05-15T04:50:10.048Z,99.99
2018-05-15T04:51:17.604Z,99.99
2018-05-15T04:52:25.652Z,99.99
2018-05-15T04:53:33.727Z,99.99
2018-05-15T04:54:41.772Z,99.99
2018-05-15T04:55:49.984Z,99.99
2018-05-15T04:56:57.921Z,99.99
2018-05-15T04:58:05.984Z,99.99
2018-05-15T04:59:14.047Z,99.99
2018-05-15T05:00:22.077Z,99.99
2018-05-15T05:01:30.178Z,99.99
2018-05-15T05:02:38.243Z,99.99
2018-05-15T05:03:46.310Z,99.99
2018-05-15T05:04:54.380Z,99.99
2018-05-15T05:06:02.423Z,99.99
2018-05-15T05:07:10.489Z,99.99
2018-05-15T05:08:18.554Z,99.99
2018-05-15T05:09:26.623Z,99.99
2018-05-15T05:10:34.704Z,99.99
2018-05-15T05:11:42.772Z,99.99
2018-05-15T05:12:50.803Z,99.99
2018-05-15T05:13:58.880Z,99.99
2018-05-15T05:15:07.838Z,99.99
2018-05-15T05:16:15.004Z,99.99
2018-05-15T05:17:23.077Z,99.99
2018-05-15T05:18:31.138Z,99.99
2018-05-15T05:19:39.189Z,99.99
2018-05-15T05:20:47.819Z,99.99
2018-05-15T05:21:55.334Z,99.99
2018-05-15T05:23:03.396Z,99.99
2018-05-15T05:24:11.457Z,99.99
2018-05-15T05:25:19.527Z,99.99
2018-05-15T05:26:27.587Z,99.99
2018-05-15T05:27:35.658Z,99.99
2018-05-15T05:28:43.726Z,99.99
2018-05-15T05:29:51.769Z,99.99
2018-05-15T05:30:59.849Z,99.99
2018-05-15T05:32:07.904Z,99.99
2018-05-15T05:33:16.076Z,99.99
2018-05-15T05:34:24.041Z,99.99
2018-05-15T05:35:32.089Z,99.99
2018-05-15T05:36:40.179Z,99.99
2018-05-15T05:37:48.258Z,99.99
2018-05-15T05:38:56.303Z,99.99
2018-05-15T05:40:04.409Z,99.99
2018-05-15T05:41:12.442Z,99.99
2018-05-15T05:42:20.490Z,99.99
2018-05-15T05:43:28.569Z,99.99
2018-05-15T05:44:36.633Z,99.99
2018-05-15T05:45:44.709Z,99.99
2018-05-15T05:46:52.769Z,99.99
2018-05-15T05:48:00.862Z,99.99
2018-05-15T05:49:08.894Z,99.99
2018-05-15T05:50:16.979Z,99.99
2018-05-15T05:51:25.046Z,99.99
2018-05-15T05:52:33.118Z,99.99
2018-05-15T05:53:41.180Z,99.99
2018-05-15T05:54:49.240Z,99.99
2018-05-15T05:55:57.326Z,99.99
2018-05-15T05:57:05.466Z,99.99
2018-05-15T05:58:13.450Z,99.99
2018-05-15T05:59:21.491Z,99.99
2018-05-15T06:00:29.583Z,99.99
2018-05-15T06:01:37.659Z,99.99
2018-05-15T06:02:45.721Z,99.99
2018-05-15T06:03:53.778Z,99.99
2018-05-15T06:05:01.835Z,99.99
2018-05-15T06:06:09.930Z,99.99
2018-05-15T06:07:18.084Z,99.99
2018-05-15T06:08:26.062Z,99.99
2018-05-15T06:09:34.114Z,99.99
2018-05-15T06:10:42.169Z,99.99
2018-05-15T06:11:50.268Z,99.99
2018-05-15T06:12:58.321Z,99.99
2018-05-15T06:14:06.392Z,99.99
2018-05-15T06:15:14.465Z,99.99
2018-05-15T06:16:22.524Z,99.99
2018-05-15T06:17:30.596Z,99.99
2018-05-15T06:18:38.652Z,99.99
2018-05-15T06:19:47.297Z,99.99
2018-05-15T06:20:55.051Z,99.99
2018-05-15T06:22:03.427Z,99.99
2018-05-15T06:23:11.424Z,99.99
2018-05-15T06:24:19.498Z,99.99
2018-05-15T06:25:27.645Z,99.99
2018-05-15T06:26:35.115Z,99.99
2018-05-15T06:27:43.206Z,99.99
2018-05-15T06:28:51.257Z,99.99
2018-05-15T06:29:59.332Z,99.99
2018-05-15T06:31:07.405Z,99.99
2018-05-15T06:32:15.507Z,99.99
2018-05-15T06:33:23.550Z,99.99
2018-05-15T06:34:31.609Z,99.99
2018-05-15T06:35:39.688Z,99.80
2018-05-15T06:36:47.750Z,99.99
2018-05-15T06:37:55.827Z,99.99
2018-05-15T06:39:03.882Z,99.99
2018-05-15T06:40:11.912Z,99.99
2018-05-15T06:41:20.024Z,99.99
2018-05-15T06:42:28.096Z,99.99
2018-05-15T06:43:36.155Z,99.99
2018-05-15T06:44:44.314Z,99.99
2018-05-15T06:45:52.295Z,99.99
2018-05-15T06:47:00.375Z,99.99
2018-05-15T06:48:08.438Z,99.99
2018-05-15T06:49:16.504Z,99.99
2018-05-15T06:50:24.565Z,99.66
2018-05-15T06:51:32.637Z,99.99
2018-05-15T06:52:40.701Z,99.90
2018-05-15T06:53:48.782Z,99.24
2018-05-15T06:54:56.838Z,97.33
2018-05-15T06:56:04.914Z,95.94
2018-05-15T06:57:12.981Z,96.32
2018-05-15T06:58:21.043Z,95.94
2018-05-15T06:59:29.117Z,98.52
2018-05-15T07:00:37.194Z,98.57
2018-05-15T07:01:45.283Z,98.57
2018-05-15T07:02:53.337Z,95.79
2018-05-15T07:04:01.401Z,95.98
2018-05-15T07:05:09.474Z,95.31
2018-05-15T07:06:17.543Z,93.79
2018-05-15T07:07:25.594Z,93.54
2018-05-15T07:08:33.670Z,93.83
2018-05-15T07:09:41.733Z,91.49
2018-05-15T07:10:49.809Z,93.40
2018-05-15T07:11:57.877Z,96.18
2018-05-15T07:13:05.948Z,93.88
2018-05-15T07:14:14.021Z,95.70
2018-05-15T07:15:22.086Z,95.79
2018-05-15T07:16:30.171Z,95.98
2018-05-15T07:17:38.242Z,94.45
2018-05-15T07:18:46.308Z,95.98
2018-05-15T07:19:54.383Z,93.74
2018-05-15T07:21:02.450Z,97.37
2018-05-15T07:22:10.515Z,95.94
2018-05-15T07:23:18.602Z,95.75
2018-05-15T07:24:26.810Z,97.66
2018-05-15T07:25:34.742Z,99.96
2018-05-15T07:26:42.807Z,99.62
2018-05-15T07:27:50.867Z,98.47
2018-05-15T07:28:58.941Z,99.24
2018-05-15T07:30:07.012Z,97.56
2018-05-15T07:31:15.077Z,98.33
2018-05-15T07:32:23.154Z,99.76
2018-05-15T07:33:31.219Z,99.99
2018-05-15T07:34:39.283Z,99.99
2018-05-15T07:35:47.352Z,99.99
2018-05-15T07:36:55.457Z,99.99
2018-05-15T07:38:03.495Z,98.75
2018-05-15T07:39:11.544Z,99.99
2018-05-15T07:40:19.735Z,99.99
2018-05-15T07:41:27.705Z,99.99
2018-05-15T07:42:35.780Z,99.99
2018-05-15T07:43:43.837Z,99.99
2018-05-15T07:44:51.885Z,99.99
2018-05-15T07:45:59.978Z,99.99
2018-05-15T07:47:08.048Z,99.99
2018-05-15T07:48:16.144Z,98.42
2018-05-15T07:49:24.197Z,99.48
2018-05-15T07:50:32.250Z,99.90
2018-05-15T07:51:40.326Z,99.62
2018-05-15T07:52:48.391Z,99.99
2018-05-15T07:53:56.455Z,97.90
2018-05-15T07:55:04.536Z,97.04
2018-05-15T07:56:12.605Z,98.66
2018-05-15T07:57:20.668Z,99.99
2018-05-15T07:58:28.735Z,99.99
2018-05-15T07:59:36.808Z,98.52
2018-05-15T08:00:44.895Z,96.42
2018-05-15T08:01:52.947Z,95.17
2018-05-15T08:03:01.019Z,95.17
2018-05-15T08:04:09.092Z,95.56
2018-05-15T08:05:17.149Z,95.84
2018-05-15T08:06:25.219Z,95.75
2018-05-15T08:07:33.301Z,95.32
2018-05-15T08:08:41.333Z,94.74
2018-05-15T08:09:49.431Z,95.79
2018-05-15T08:10:57.510Z,96.18
2018-05-15T08:12:05.581Z,98.75
2018-05-15T08:13:13.638Z,96.66
2018-05-15T08:14:21.688Z,95.41
2018-05-15T08:15:29.784Z,98.47
2018-05-15T08:16:37.846Z,97.52
2018-05-15T08:17:45.906Z,96.84
2018-05-15T08:18:54.006Z,97.42
2018-05-15T08:20:02.051Z,97.61
2018-05-15T08:21:10.129Z,96.94
2018-05-15T08:22:18.335Z,96.27
2018-05-15T08:23:26.279Z,97.08
2018-05-15T08:24:34.346Z,95.94
2018-05-15T08:25:42.392Z,93.69
2018-05-15T08:26:50.473Z,95.31
2018-05-15T08:27:58.540Z,93.98
2018-05-15T08:29:06.623Z,95.79
2018-05-15T08:30:14.670Z,94.07
2018-05-15T08:31:22.746Z,94.50
2018-05-15T08:32:30.810Z,95.27
2018-05-15T08:33:38.898Z,95.17
2018-05-15T08:34:46.967Z,95.56
2018-05-15T08:35:55.027Z,96.89
2018-05-15T08:37:03.100Z,97.80
2018-05-15T08:38:11.189Z,98.85
2018-05-15T08:39:19.244Z,97.04
2018-05-15T08:40:27.310Z,97.52
2018-05-15T08:41:35.383Z,98.18
2018-05-15T08:42:43.452Z,99.14
2018-05-15T08:43:51.489Z,99.48
2018-05-15T08:44:59.585Z,99.19
2018-05-15T08:46:07.658Z,99.99
2018-05-15T08:47:15.734Z,99.48
2018-05-15T08:48:23.781Z,99.76
2018-05-15T08:49:31.834Z,99.95
2018-05-15T08:50:39.928Z,99.99
2018-05-15T08:51:47.996Z,99.99
2018-05-15T08:52:56.067Z,99.99
2018-05-15T08:54:04.141Z,99.99
2018-05-15T08:55:12.184Z,99.99
2018-05-15T08:56:20.286Z,99.99
2018-05-15T08:57:28.340Z,99.99
2018-05-15T08:58:36.418Z,99.99
2018-05-15T08:59:44.483Z,99.99
2018-05-15T09:00:52.569Z,99.99
2018-05-15T09:02:00.609Z,99.99
2018-05-15T09:03:08.685Z,99.99
2018-05-15T09:04:16.746Z,99.99
2018-05-15T09:05:24.817Z,99.99
2018-05-15T09:06:32.889Z,99.99
2018-05-15T09:07:40.952Z,99.99
2018-05-15T09:08:49.017Z,99.99
2018-05-15T09:09:57.092Z,99.99
2018-05-15T09:11:05.158Z,99.99
2018-05-15T09:12:13.219Z,99.99
2018-05-15T09:13:21.286Z,99.99
2018-05-15T09:14:29.364Z,99.99
2018-05-15T09:15:37.435Z,99.99
2018-05-15T09:16:45.500Z,99.99
2018-05-15T09:17:53.551Z,99.99
2018-05-15T09:19:01.605Z,99.99
2018-05-15T09:20:09.700Z,99.99
2018-05-15T09:21:17.762Z,99.99
2018-05-15T09:22:25.828Z,99.99
2018-05-15T09:23:33.886Z,99.99
2018-05-15T09:24:41.935Z,99.99
2018-05-15T09:25:50.030Z,99.99
2018-05-15T09:26:58.096Z,99.99
2018-05-15T09:28:06.172Z,99.99
2018-05-15T09:29:14.307Z,99.99
2018-05-15T09:30:22.283Z,99.99
2018-05-15T09:31:30.361Z,99.99
2018-05-15T09:32:38.433Z,99.99
2018-05-15T09:33:46.503Z,99.99
2018-05-15T09:34:54.571Z,99.99
2018-05-15T09:36:02.645Z,99.99
2018-05-15T09:37:10.723Z,99.99
2018-05-15T09:38:18.785Z,99.99
2018-05-15T09:39:26.853Z,99.99
2018-05-15T09:40:34.923Z,99.99
2018-05-15T09:41:42.997Z,99.99
2018-05-15T09:42:51.043Z,99.99
2018-05-15T09:43:59.115Z,99.99
2018-05-15T09:45:07.197Z,99.99
2018-05-15T09:46:15.254Z,99.99
2018-05-15T09:47:23.322Z,99.99
2018-05-15T09:48:31.385Z,99.99
2018-05-15T09:49:39.468Z,99.99
2018-05-15T09:50:47.526Z,99.99
2018-05-15T09:51:55.604Z,99.99
2018-05-15T09:53:03.653Z,96.66
2018-05-15T09:54:11.709Z,99.33
2018-05-15T09:55:19.816Z,99.43
2018-05-15T09:56:27.863Z,99.99
2018-05-15T09:57:35.947Z,99.99
2018-05-15T09:58:44.011Z,97.75
2018-05-15T09:59:52.054Z,99.99
2018-05-15T10:01:00.133Z,99.99
2018-05-15T10:02:08.213Z,99.99
2018-05-15T10:03:16.285Z,98.62
2018-05-15T10:04:24.350Z,99.99
2018-05-15T10:05:32.413Z,99.99
2018-05-15T10:06:40.490Z,99.99
2018-05-15T10:07:48.622Z,99.99
2018-05-15T10:08:56.631Z,97.33
2018-05-15T10:10:04.771Z,99.29
2018-05-15T10:11:12.773Z,99.24
2018-05-15T10:12:20.848Z,99.76
2018-05-15T10:13:28.921Z,97.71
2018-05-15T10:14:36.990Z,99.99
2018-05-15T10:15:45.056Z,99.00
2018-05-15T10:16:53.121Z,95.31
2018-05-15T10:18:01.200Z,94.07
2018-05-15T10:19:09.269Z,95.94
2018-05-15T10:20:17.341Z,98.62
2018-05-15T10:21:25.401Z,95.36
2018-05-15T10:22:33.475Z,94.50
2018-05-15T10:23:41.524Z,94.59
2018-05-15T10:24:49.627Z,92.77
2018-05-15T10:25:57.691Z,92.10
2018-05-15T10:27:05.756Z,91.82
2018-05-15T10:28:13.827Z,94.50
2018-05-15T10:29:21.884Z,91.53
2018-05-15T10:30:29.969Z,91.05
2018-05-15T10:31:38.043Z,92.72
2018-05-15T10:32:46.119Z,94.17
2018-05-15T10:33:54.184Z,94.79
2018-05-15T10:35:02.248Z,91.91
2018-05-15T10:36:10.336Z,92.77
2018-05-15T10:37:18.453Z,91.52
2018-05-15T10:38:26.480Z,93.06
2018-05-15T10:39:34.550Z,91.91
2018-05-15T10:40:42.616Z,86.92
2018-05-15T10:41:50.705Z,89.70
2018-05-15T10:42:58.758Z,93.25
2018-05-15T10:44:06.851Z,95.41
2018-05-15T10:45:14.908Z,88.59
2018-05-15T10:46:22.973Z,87.30
2018-05-15T10:47:31.060Z,89.79
2018-05-15T10:48:39.118Z,85.58
2018-05-15T10:49:47.203Z,87.88
2018-05-15T10:50:55.259Z,87.68
2018-05-15T10:52:03.346Z,88.74
2018-05-15T10:53:11.400Z,89.79
2018-05-15T10:54:19.488Z,89.75
2018-05-15T10:55:27.570Z,92.68
2018-05-15T10:56:35.628Z,91.72
2018-05-15T10:57:43.712Z,91.81
2018-05-15T10:58:51.747Z,90.56
2018-05-15T10:59:59.882Z,89.89
2018-05-15T11:01:07.918Z,89.61
2018-05-15T11:02:16.003Z,89.32
2018-05-15T11:03:24.060Z,91.42
2018-05-15T11:04:32.107Z,88.74
2018-05-15T11:05:40.204Z,89.07
2018-05-15T11:06:48.293Z,88.35
2018-05-15T11:07:56.361Z,86.76
2018-05-15T11:09:04.436Z,85.80
2018-05-15T11:10:12.505Z,84.07
2018-05-15T11:11:20.579Z,83.69
2018-05-15T11:12:28.650Z,84.41
2018-05-15T11:13:36.718Z,88.83
2018-05-15T11:14:44.788Z,87.96
2018-05-15T11:15:52.872Z,87.54
2018-05-15T11:17:00.953Z,86.68
2018-05-15T11:18:09.009Z,88.59
2018-05-15T11:19:17.096Z,87.29
2018-05-15T11:20:25.160Z,86.72
2018-05-15T11:21:33.228Z,83.51
2018-05-15T11:22:41.319Z,86.87
2018-05-15T11:23:49.387Z,87.88
2018-05-15T11:24:57.456Z,88.07
2018-05-15T11:26:05.533Z,87.21
2018-05-15T11:27:13.623Z,86.82
2018-05-15T11:28:21.677Z,87.05
2018-05-15T11:29:29.745Z,85.71
2018-05-15T11:30:37.816Z,87.49
2018-05-15T11:31:45.886Z,93.49
2018-05-15T11:32:53.958Z,84.94
2018-05-15T11:34:02.028Z,85.95
2018-05-15T11:35:10.108Z,84.41
2018-05-15T11:36:18.185Z,81.63
2018-05-15T11:37:26.271Z,84.47
2018-05-15T11:38:34.332Z,88.69
2018-05-15T11:39:42.394Z,87.35
2018-05-15T11:40:50.469Z,86.58
2018-05-15T11:41:58.539Z,87.30
2018-05-15T11:43:06.613Z,89.99
2018-05-15T11:44:14.701Z,88.84
2018-05-15T11:45:22.764Z,91.67
2018-05-15T11:46:30.839Z,91.77
2018-05-15T11:47:39.138Z,91.24
2018-05-15T11:48:47.916Z,92.10
2018-05-15T11:49:56.029Z,92.25
2018-05-15T11:51:03.681Z,94.17
2018-05-15T11:52:11.896Z,92.06
2018-05-15T11:53:19.521Z,93.02
2018-05-15T11:54:27.340Z,95.89
2018-05-15T11:55:42.541Z,95.07
2018-05-15T11:56:43.473Z,93.93
2018-05-15T11:57:51.730Z,94.12
2018-05-15T11:58:59.626Z,93.26
2018-05-15T12:00:07.743Z,93.64
2018-05-15T12:01:15.755Z,95.51
2018-05-15T12:02:23.916Z,93.79
2018-05-15T12:03:31.883Z,93.98
2018-05-15T12:04:39.974Z,95.89
2018-05-15T12:05:48.051Z,97.23
2018-05-15T12:06:56.121Z,98.90
2018-05-15T12:08:04.227Z,99.99
2018-05-15T12:09:12.248Z,99.99
2018-05-15T12:10:20.325Z,99.99
2018-05-15T12:11:29.448Z,99.99
2018-05-15T12:12:36.468Z,99.99
2018-05-15T12:13:44.540Z,99.99
2018-05-15T12:14:52.616Z,99.99
2018-05-15T12:16:00.722Z,99.99
2018-05-15T12:17:08.736Z,99.99
2018-05-15T12:18:16.813Z,99.99
2018-05-15T12:19:24.889Z,99.99
2018-05-15T12:20:32.955Z,99.99
2018-05-15T12:21:41.040Z,99.99
2018-05-15T12:22:49.096Z,99.99
2018-05-15T12:23:57.173Z,99.99
2018-05-15T12:25:05.236Z,99.99
2018-05-15T12:26:26.078Z,99.99
2018-05-15T12:27:21.348Z,99.99
2018-05-15T12:28:29.441Z,99.99
2018-05-15T12:29:37.504Z,99.99
2018-05-15T12:30:45.576Z,99.99
2018-05-15T12:31:53.632Z,99.99
2018-05-15T12:33:01.675Z,99.99
2018-05-15T12:34:09.763Z,99.99
2018-05-15T12:35:17.824Z,99.99
2018-05-15T12:36:25.908Z,99.99
2018-05-15T12:37:33.974Z,99.99
2018-05-15T12:38:42.009Z,99.99
2018-05-15T12:39:50.117Z,99.99
2018-05-15T12:40:58.176Z,99.99
2018-05-15T12:42:06.289Z,99.99
2018-05-15T12:43:14.310Z,99.99
2018-05-15T12:44:22.368Z,99.99
2018-05-15T12:45:30.436Z,99.99
2018-05-15T12:46:38.496Z,99.99
2018-05-15T12:47:46.593Z,99.99
2018-05-15T12:48:54.647Z,99.99
2018-05-15T12:50:02.702Z,99.99
2018-05-15T12:51:10.766Z,99.99
2018-05-15T12:52:18.825Z,99.99
2018-05-15T12:53:26.896Z,99.99
2018-05-15T12:54:34.961Z,99.99
2018-05-15T17:10:49.251Z,99.99
2018-05-15T17:11:56.978Z,99.99
2018-05-15T17:13:05.047Z,99.99
2018-05-15T17:14:13.098Z,99.99
2018-05-15T17:15:21.131Z,99.99
2018-05-15T17:16:29.217Z,99.99
2018-05-15T17:17:37.286Z,99.99
2018-05-15T17:18:45.341Z,99.99
2018-05-15T17:19:53.403Z,99.99
2018-05-15T17:21:01.467Z,99.99
2018-05-15T17:22:09.544Z,99.99
2018-05-15T17:23:17.602Z,99.99
2018-05-15T17:24:25.676Z,99.99
2018-05-15T17:25:33.802Z,99.99
2018-05-15T17:26:41.783Z,99.99
2018-05-15T17:27:49.854Z,99.99
2018-05-15T17:28:57.906Z,99.99
2018-05-15T17:30:05.985Z,99.99
2018-05-15T17:31:14.057Z,99.99
2018-05-15T17:32:22.111Z,99.99
2018-05-15T17:33:30.178Z,99.99
2018-05-15T17:34:38.228Z,99.99
2018-05-15T17:35:46.290Z,99.99
2018-05-15T17:36:54.349Z,99.99
2018-05-15T17:38:02.430Z,99.99
2018-05-15T17:39:10.467Z,99.99
2018-05-15T17:40:18.533Z,99.99
2018-05-15T17:41:26.591Z,99.99
2018-05-15T17:42:34.664Z,99.99
2018-05-15T17:43:42.726Z,99.99
2018-05-15T17:44:50.763Z,99.99
2018-05-15T17:45:58.843Z,99.99
2018-05-15T17:47:06.916Z,99.99
2018-05-15T17:48:14.977Z,99.99
2018-05-15T17:49:23.031Z,99.99
2018-05-15T17:50:31.065Z,99.99
2018-05-15T17:51:39.196Z,99.99
2018-05-15T17:52:47.269Z,99.99
2018-05-15T17:53:55.284Z,99.99
2018-05-15T17:55:03.349Z,99.99
2018-05-15T17:56:11.388Z,99.99
2018-05-15T17:57:19.481Z,99.99
2018-05-15T17:58:27.540Z,99.99
2018-05-15T17:59:35.591Z,99.99
2018-05-15T18:00:43.668Z,99.99
2018-05-15T18:01:51.716Z,99.99
2018-05-15T18:02:59.799Z,99.99
2018-05-15T18:04:07.848Z,99.99
2018-05-15T18:05:15.905Z,0.00
2018-05-15T18:06:23.974Z,0.00
2018-05-15T18:07:32.037Z,0.00
2018-05-15T18:08:40.110Z,0.00
2018-05-15T18:09:48.160Z,0.00
2018-05-15T18:10:56.221Z,0.00
2018-05-15T18:12:04.392Z,0.00
2018-05-15T18:13:12.349Z,0.00
2018-05-15T18:14:20.389Z,0.00
2018-05-15T18:15:28.456Z,0.00
2018-05-15T18:16:36.539Z,0.00
2018-05-15T18:17:44.576Z,0.00
2018-05-15T18:18:52.649Z,0.00
2018-05-15T18:20:00.692Z,0.00
2018-05-15T18:21:08.830Z,0.00
2018-05-15T18:22:16.837Z,0.00
2018-05-15T18:23:24.894Z,0.00
2018-05-15T18:24:32.947Z,0.00
2018-05-15T18:25:41.004Z,0.00
2018-05-15T18:26:49.082Z,0.00
2018-05-15T18:27:57.142Z,0.00
2018-05-15T18:29:05.202Z,0.00
2018-05-15T18:30:13.256Z,0.00
2018-05-15T18:31:21.305Z,0.00
2018-05-15T18:32:29.384Z,0.00
2018-05-15T18:33:37.447Z,0.00
2018-05-15T18:34:45.476Z,0.00
2018-05-15T18:35:53.563Z,0.00
2018-05-15T18:37:01.649Z,0.00
2018-05-15T18:38:09.709Z,0.00
2018-05-15T18:39:17.755Z,0.00
2018-05-15T18:40:25.817Z,0.00
2018-05-15T18:41:33.874Z,0.00
2018-05-15T18:42:41.950Z,0.00
2018-05-15T18:43:49.996Z,0.00
2018-05-15T18:44:58.059Z,0.00
2018-05-15T18:46:06.131Z,0.00
2018-05-15T18:47:14.188Z,0.00
2018-05-15T18:48:22.247Z,0.00
2018-05-15T18:49:30.294Z,0.00
2018-05-15T18:50:38.379Z,0.00
2018-05-15T18:51:46.434Z,0.00
2018-05-15T18:52:54.503Z,0.00
2018-05-15T18:54:02.555Z,0.00